Time;durP1;ratioP1;P1;durP2;ratioP2;P2;SDS_P1;SDS_P2;PMS_P1;PMS_P2;Temp;Humidity;BMP_temperature;BMP_pressure;BME280_temperature;BME280_humidity;BME280_pressure;Samples;Min_cycle;Max_cycle;Signal;HPM_P1;HPM_P2
2024/01/06 00:01:25;;;;;;;0.70;0.70;;;8.90;99.90;;;;;;10489784;28;20487;-77
2024/01/06 00:06:27;;;;;;;0.67;0.67;;;9.00;99.90;;;;;;10488907;28;20208;-77
2024/01/06 00:11:31;;;;;;;0.60;0.60;;;9.00;99.90;;;;;;10491491;28;20222;-76
2024/01/06 00:16:33;;;;;;;0.50;0.50;;;9.00;99.90;;;;;;10490496;28;20253;-76
2024/01/06 00:21:35;;;;;;;0.70;0.70;;;9.00;99.90;;;;;;10506320;28;20223;-76
2024/01/06 00:26:39;;;;;;;0.70;0.70;;;9.10;99.90;;;;;;10491326;28;20258;-77
2024/01/06 00:31:41;;;;;;;0.50;0.50;;;9.20;99.90;;;;;;10497129;28;20281;-77
2024/01/06 00:36:44;;;;;;;0.50;0.50;;;9.10;99.90;;;;;;10491347;28;20322;-77
2024/01/06 00:41:47;;;;;;;0.50;0.50;;;9.10;99.90;;;;;;10491133;28;20755;-77
2024/01/06 00:46:50;;;;;;;0.50;0.50;;;9.10;99.90;;;;;;10492780;28;20204;-74
2024/01/06 00:51:52;;;;;;;0.50;0.50;;;9.10;99.90;;;;;;10484806;28;20227;-77
2024/01/06 00:56:56;;;;;;;0.60;0.60;;;9.10;99.90;;;;;;10483052;28;20192;-77
2024/01/06 01:01:58;;;;;;;0.50;0.50;;;9.10;99.90;;;;;;10491590;28;20220;-77
2024/01/06 01:07:01;;;;;;;0.50;0.50;;;9.10;99.90;;;;;;10479698;28;20245;-77
2024/01/06 01:12:05;;;;;;;0.50;0.50;;;9.00;99.90;;;;;;10488932;28;20236;-76
2024/01/06 01:17:07;;;;;;;0.60;0.60;;;9.00;99.90;;;;;;10510414;28;20435;-77
2024/01/06 01:22:10;;;;;;;0.60;0.60;;;9.00;99.90;;;;;;10493785;28;20224;-77
2024/01/06 01:27:13;;;;;;;0.60;0.60;;;9.00;99.90;;;;;;10505623;28;20206;-77
2024/01/06 01:32:16;;;;;;;0.60;0.60;;;9.00;99.90;;;;;;10488210;28;20309;-76
2024/01/06 01:37:18;;;;;;;0.60;0.60;;;9.00;99.90;;;;;;10494908;28;20261;-77
2024/01/06 01:42:22;;;;;;;0.50;0.50;;;9.00;99.90;;;;;;10487049;28;20220;-76
2024/01/06 01:47:24;;;;;;;0.57;0.57;;;8.90;99.90;;;;;;10498946;28;20752;-77
2024/01/06 01:52:27;;;;;;;0.50;0.50;;;8.80;99.90;;;;;;10491862;28;20622;-77
2024/01/06 01:57:31;;;;;;;0.50;0.50;;;8.80;99.90;;;;;;10494523;28;20246;-76
2024/01/06 02:02:34;;;;;;;0.60;0.60;;;8.80;99.90;;;;;;10487665;28;20767;-76
2024/01/06 02:07:36;;;;;;;0.60;0.60;;;8.70;99.90;;;;;;10493505;28;20266;-77
2024/01/06 02:12:40;;;;;;;0.60;0.60;;;8.70;99.90;;;;;;10494045;28;20265;-76
2024/01/06 02:17:42;;;;;;;0.60;0.60;;;8.60;99.90;;;;;;10476770;28;20205;-76
2024/01/06 02:22:46;;;;;;;0.57;0.57;;;8.60;99.90;;;;;;10504195;28;20211;-77
2024/01/06 02:27:49;;;;;;;0.60;0.60;;;8.60;99.90;;;;;;10523553;28;20203;-77
2024/01/06 02:32:51;;;;;;;0.60;0.60;;;8.60;99.90;;;;;;10515026;28;20230;-77
2024/01/06 02:37:55;;;;;;;0.50;0.50;;;8.60;99.90;;;;;;10524091;28;20203;-77
2024/01/06 02:42:57;;;;;;;0.50;0.50;;;8.60;99.90;;;;;;10516495;28;20583;-76
2024/01/06 02:47:59;;;;;;;0.50;0.50;;;8.60;99.90;;;;;;10518902;28;20257;-77
2024/01/06 02:53:03;;;;;;;0.50;0.50;;;8.70;99.90;;;;;;10516770;28;20269;-76
2024/01/06 02:58:06;;;;;;;0.63;0.63;;;8.70;99.90;;;;;;10517205;28;20207;-77
2024/01/06 03:03:08;;;;;;;0.60;0.60;;;8.70;99.90;;;;;;10491133;28;20216;-76
2024/01/06 03:08:12;;;;;;;0.60;0.60;;;8.70;99.90;;;;;;10527494;28;20618;-76
2024/01/06 03:13:14;;;;;;;0.70;0.70;;;8.70;99.90;;;;;;10510518;28;20224;-77
2024/01/06 03:18:17;;;;;;;0.60;0.60;;;8.70;99.90;;;;;;10518181;28;20200;-77
2024/01/06 03:23:20;;;;;;;0.60;0.60;;;8.70;99.90;;;;;;10518769;28;20288;-77
2024/01/06 03:28:23;;;;;;;0.50;0.50;;;8.70;99.90;;;;;;10520049;28;20196;-77
2024/01/06 03:33:25;;;;;;;0.57;0.57;;;8.70;99.90;;;;;;10528517;28;20645;-76
2024/01/06 03:38:28;;;;;;;0.70;0.70;;;8.70;99.90;;;;;;10496729;28;20201;-76
2024/01/06 03:43:31;;;;;;;0.60;0.60;;;8.60;99.90;;;;;;10503713;28;20217;-77
2024/01/06 03:48:33;;;;;;;0.60;0.60;;;8.60;99.90;;;;;;10503613;28;20200;-76
2024/01/06 03:53:37;;;;;;;0.60;0.60;;;8.60;99.90;;;;;;10503958;28;20306;-77
2024/01/06 03:58:39;;;;;;;0.60;0.60;;;8.70;99.90;;;;;;10504866;28;20692;-77
2024/01/06 04:03:42;;;;;;;0.80;0.80;;;8.60;99.90;;;;;;10505080;28;20219;-77
2024/01/06 04:08:45;;;;;;;1.00;1.00;;;8.70;99.90;;;;;;10498071;28;20219;-75
2024/01/06 04:13:48;;;;;;;0.70;0.70;;;8.70;99.90;;;;;;10505752;28;20529;-77
2024/01/06 04:18:50;;;;;;;0.70;0.70;;;8.60;99.90;;;;;;10505969;28;20199;-77
2024/01/06 04:23:55;;;;;;;0.70;0.70;;;8.50;99.90;;;;;;10506696;28;20696;-77
2024/01/06 04:28:58;;;;;;;0.70;0.70;;;8.40;99.90;;;;;;10500632;28;20215;-77
2024/01/06 04:34:00;;;;;;;0.70;0.70;;;8.30;99.90;;;;;;10499100;28;20220;-77
2024/01/06 04:39:04;;;;;;;0.80;0.80;;;8.30;99.90;;;;;;10511693;28;20204;-77
2024/01/06 04:44:06;;;;;;;0.70;0.70;;;8.20;99.90;;;;;;10499423;28;20215;-77
2024/01/06 04:49:08;;;;;;;0.90;0.90;;;8.20;99.90;;;;;;10501538;28;20270;-76
2024/01/06 04:54:12;;;;;;;0.77;0.77;;;8.20;99.90;;;;;;10499575;28;20290;-77
2024/01/06 04:59:15;;;;;;;0.90;0.90;;;8.10;99.90;;;;;;10483939;28;20220;-77
2024/01/06 05:04:17;;;;;;;0.90;0.90;;;8.10;99.90;;;;;;10508164;28;20238;-78
2024/01/06 05:09:21;;;;;;;0.70;0.70;;;8.10;99.90;;;;;;10521289;28;20189;-78
2024/01/06 05:14:23;;;;;;;0.73;0.73;;;8.10;99.90;;;;;;10511786;28;20553;-76
2024/01/06 05:19:25;;;;;;;0.90;0.90;;;8.10;99.90;;;;;;10511195;28;20204;-78
2024/01/06 05:24:29;;;;;;;0.70;0.70;;;8.10;99.90;;;;;;10506452;28;20650;-77
2024/01/06 05:29:31;;;;;;;0.70;0.70;;;8.20;99.90;;;;;;10502120;28;20211;-78
2024/01/06 05:34:34;;;;;;;0.80;0.80;;;8.20;99.90;;;;;;10508736;28;20216;-77
2024/01/06 05:39:39;;;;;;;0.73;0.73;;;8.10;99.90;;;;;;10528777;28;20657;-78
2024/01/06 05:44:42;;;;;;;0.70;0.70;;;8.20;99.90;;;;;;10497008;28;20262;-76
2024/01/06 05:49:44;;;;;;;0.70;0.70;;;8.20;99.90;;;;;;10496284;28;20235;-76
2024/01/06 05:54:48;;;;;;;0.70;0.70;;;8.20;99.90;;;;;;10496040;28;20224;-75
2024/01/06 05:59:52;;;;;;;0.80;0.80;;;8.10;99.90;;;;;;10497205;28;20224;-76
2024/01/06 06:04:54;;;;;;;0.90;0.90;;;8.20;99.90;;;;;;10523721;28;20196;-77
2024/01/06 06:09:58;;;;;;;0.80;0.80;;;8.20;99.90;;;;;;10489857;28;20216;-75
2024/01/06 06:15:00;;;;;;;0.70;0.70;;;8.10;99.90;;;;;;10489921;28;20238;-76
2024/01/06 06:20:03;;;;;;;0.70;0.70;;;8.20;99.90;;;;;;10490808;28;20266;-76
2024/01/06 06:25:08;;;;;;;0.70;0.70;;;8.20;99.90;;;;;;10511760;28;20726;-76
2024/01/06 06:30:11;;;;;;;0.70;0.70;;;8.30;99.90;;;;;;10512840;28;20242;-76
2024/01/06 06:35:14;;;;;;;0.70;0.70;;;8.40;99.90;;;;;;10479928;28;20258;-75
2024/01/06 06:40:17;;;;;;;0.70;0.70;;;8.40;99.90;;;;;;10466578;28;20621;-79
2024/01/06 06:45:22;;;;;;;0.60;0.60;;;8.50;99.60;;;;;;10486535;28;20204;-77
2024/01/06 06:50:24;;;;;;;0.70;0.70;;;8.50;99.80;;;;;;10484760;28;20571;-76
2024/01/06 06:55:28;;;;;;;0.70;0.70;;;8.50;99.50;;;;;;10485837;28;20301;-77
2024/01/06 07:00:30;;;;;;;0.60;0.60;;;8.50;99.80;;;;;;10486230;28;20224;-75
2024/01/06 07:05:33;;;;;;;0.70;0.70;;;8.60;99.50;;;;;;10486438;28;20201;-76
2024/01/06 07:10:37;;;;;;;0.60;0.60;;;8.60;99.70;;;;;;10495061;28;20216;-76
2024/01/06 07:15:41;;;;;;;0.70;0.70;;;8.50;99.80;;;;;;10495079;28;20242;-76
2024/01/06 07:20:43;;;;;;;0.70;0.70;;;8.50;99.90;;;;;;10495305;28;20220;-76
2024/01/06 07:25:47;;;;;;;0.60;0.60;;;8.50;99.70;;;;;;10477036;28;20992;-77
2024/01/06 07:30:49;;;;;;;0.80;0.80;;;8.50;99.90;;;;;;10494949;28;20694;-76
2024/01/06 07:35:51;;;;;;;0.50;0.50;;;8.50;99.90;;;;;;10496799;28;20270;-77
2024/01/06 07:40:55;;;;;;;0.77;0.77;;;8.40;99.80;;;;;;10491911;28;20224;-76
2024/01/06 07:45:58;;;;;;;0.90;0.90;;;8.40;99.90;;;;;;10491920;28;20230;-75
2024/01/06 07:51:00;;;;;;;0.80;0.80;;;8.40;99.90;;;;;;10491595;28;20219;-76
2024/01/06 07:56:04;;;;;;;0.60;0.60;;;8.40;99.90;;;;;;10491629;28;20200;-76
2024/01/06 08:01:07;;;;;;;0.70;0.70;;;8.40;99.90;;;;;;10491924;28;20232;-76
2024/01/06 08:06:09;;;;;;;0.90;0.90;;;8.40;99.50;;;;;;10491688;28;20254;-77
2024/01/06 08:11:13;;;;;;;0.60;0.60;;;8.40;99.70;;;;;;10491758;28;20709;-76
2024/01/06 08:16:15;;;;;;;0.93;0.93;;;8.40;99.60;;;;;;10492084;28;20200;-76
2024/01/06 08:21:18;;;;;;;0.60;0.60;;;8.60;99.80;;;;;;10490835;28;20220;-76
2024/01/06 08:26:22;;;;;;;0.60;0.60;;;8.60;99.70;;;;;;10500214;28;20196;-76
2024/01/06 08:31:25;;;;;;;0.50;0.50;;;8.70;99.70;;;;;;10533086;28;20841;-76
2024/01/06 08:36:27;;;;;;;0.50;0.50;;;8.70;99.40;;;;;;10507524;28;20208;-77
2024/01/06 08:41:31;;;;;;;0.40;0.40;;;8.80;98.80;;;;;;10484506;28;20220;-77
2024/01/06 08:46:33;;;;;;;0.50;0.50;;;8.80;98.50;;;;;;10484519;28;20205;-77
2024/01/06 08:51:36;;;;;;;0.40;0.40;;;8.80;98.40;;;;;;10484855;28;20212;-75
2024/01/06 08:56:39;;;;;;;0.40;0.40;;;8.90;98.60;;;;;;10484965;28;20638;-76
2024/01/06 09:01:42;;;;;;;0.50;0.50;;;9.00;98.80;;;;;;10485668;28;20221;-76
2024/01/06 09:06:45;;;;;;;0.50;0.50;;;9.10;98.40;;;;;;10486635;28;20197;-76
2024/01/06 09:11:48;;;;;;;0.40;0.40;;;9.20;98.50;;;;;;10486418;28;20716;-76
2024/01/06 09:16:51;;;;;;;0.60;0.60;;;9.20;98.20;;;;;;10487628;28;20274;-76
2024/01/06 09:21:53;;;;;;;0.40;0.40;;;9.20;98.00;;;;;;10488147;28;20212;-76
2024/01/06 09:26:57;;;;;;;0.50;0.50;;;9.30;98.10;;;;;;10502020;28;20611;-78
2024/01/06 09:32:00;;;;;;;0.40;0.40;;;9.30;98.10;;;;;;10527085;28;20243;-78
2024/01/06 09:37:02;;;;;;;0.40;0.40;;;9.40;98.20;;;;;;10506052;28;20212;-78
2024/01/06 09:42:06;;;;;;;0.50;0.50;;;9.50;98.20;;;;;;10522091;28;20216;-78
2024/01/06 09:47:12;;;;;;;0.50;0.50;;;9.60;97.40;;;;;;10522923;28;20196;-79
2024/01/06 09:52:16;;;;;;;0.40;0.40;;;9.60;97.70;;;;;;10517861;28;20219;-78
2024/01/06 09:57:21;;;;;;;0.50;0.50;;;9.70;97.80;;;;;;10510658;28;20206;-76
2024/01/06 10:02:24;;;;;;;0.50;0.50;;;9.80;97.70;;;;;;10519211;28;20251;-78
2024/01/06 10:07:27;;;;;;;0.40;0.40;;;9.80;98.00;;;;;;10494124;28;20208;-79
2024/01/06 10:12:31;;;;;;;0.50;0.50;;;9.80;98.20;;;;;;10525499;28;20280;-78
2024/01/06 10:17:33;;;;;;;0.50;0.50;;;9.80;98.40;;;;;;10520076;28;20653;-76
2024/01/06 10:22:36;;;;;;;0.50;0.50;;;9.80;98.60;;;;;;10520462;28;20237;-76
2024/01/06 10:27:41;;;;;;;0.47;0.47;;;9.80;98.80;;;;;;10500819;28;20200;-78
2024/01/06 10:32:43;;;;;;;0.50;0.50;;;9.70;99.30;;;;;;10521680;28;20272;-78
2024/01/06 10:37:46;;;;;;;0.30;0.30;;;9.70;99.60;;;;;;10486342;28;20247;-76
2024/01/06 10:42:52;;;;;;;0.50;0.50;;;9.70;99.60;;;;;;10500433;28;20208;-78
2024/01/06 10:47:55;;;;;;;0.40;0.40;;;9.70;99.40;;;;;;10506631;28;20204;-77
2024/01/06 10:52:59;;;;;;;0.40;0.40;;;9.60;99.80;;;;;;10512668;28;20974;-78
2024/01/06 10:58:05;;;;;;;0.40;0.40;;;9.60;99.90;;;;;;10489694;28;20213;-77
2024/01/06 11:03:09;;;;;;;0.40;0.40;;;9.60;99.90;;;;;;10511288;28;20219;-78
2024/01/06 11:08:12;;;;;;;0.30;0.30;;;9.70;99.90;;;;;;10497606;28;20197;-78
2024/01/06 11:13:21;;;;;;;0.30;0.30;;;9.70;99.90;;;;;;10506389;28;20225;-77
2024/01/06 11:18:35;;;;;;;0.50;0.50;;;9.70;99.90;;;;;;10480727;28;20743;-78
2024/01/06 11:23:37;;;;;;;0.40;0.40;;;9.70;99.90;;;;;;10511996;28;20674;-79
2024/01/06 11:28:46;;;;;;;0.43;0.43;;;9.80;99.90;;;;;;10516247;28;20204;-78
2024/01/06 11:33:52;;;;;;;0.40;0.40;;;9.90;99.90;;;;;;10520221;28;20224;-78
2024/01/06 11:38:54;;;;;;;0.50;0.50;;;9.90;99.90;;;;;;10527923;28;20266;-78
2024/01/06 11:43:58;;;;;;;0.40;0.40;;;9.80;99.90;;;;;;10499775;28;20262;-78
2024/01/06 11:49:01;;;;;;;0.40;0.40;;;9.70;99.90;;;;;;10512826;28;20265;-77
2024/01/06 11:54:03;;;;;;;0.33;0.33;;;9.70;99.90;;;;;;10489353;28;20316;-77
2024/01/06 11:59:07;;;;;;;0.40;0.40;;;9.70;99.90;;;;;;10505402;28;20199;-78
2024/01/06 12:04:14;;;;;;;0.50;0.50;;;9.70;99.90;;;;;;10500746;28;20217;-78
2024/01/06 12:09:19;;;;;;;0.50;0.50;;;9.80;99.90;;;;;;10506210;28;20675;-77
2024/01/06 12:14:23;;;;;;;0.40;0.40;;;9.70;99.90;;;;;;10497568;28;20235;-77
2024/01/06 12:19:26;;;;;;;0.40;0.40;;;9.80;99.90;;;;;;10513597;28;20521;-78
2024/01/06 12:24:30;;;;;;;0.50;0.50;;;9.70;99.90;;;;;;10499133;28;20201;-77
2024/01/06 12:29:33;;;;;;;0.43;0.43;;;9.70;99.90;;;;;;10513228;28;20200;-78
2024/01/06 12:34:36;;;;;;;0.40;0.40;;;9.70;99.90;;;;;;10489525;28;20277;-78
2024/01/06 12:39:39;;;;;;;0.60;0.60;;;9.70;99.90;;;;;;10509543;28;20265;-78
2024/01/06 12:44:42;;;;;;;0.50;0.50;;;9.70;99.90;;;;;;10503026;28;20196;-78
2024/01/06 12:49:45;;;;;;;0.40;0.40;;;9.60;99.90;;;;;;10512134;28;20231;-78
2024/01/06 12:54:48;;;;;;;0.47;0.47;;;9.70;99.90;;;;;;10507988;28;20643;-78
2024/01/06 12:59:51;;;;;;;0.40;0.40;;;9.70;99.90;;;;;;10523829;28;20293;-78
2024/01/06 13:04:54;;;;;;;0.40;0.40;;;9.60;99.90;;;;;;10494522;28;20606;-77
2024/01/06 13:09:57;;;;;;;0.40;0.40;;;9.60;99.90;;;;;;10504983;28;20289;-77
2024/01/06 13:15:01;;;;;;;0.40;0.40;;;9.60;99.90;;;;;;10500472;28;20216;-78
2024/01/06 13:20:04;;;;;;;0.40;0.40;;;9.50;99.90;;;;;;10492848;28;20293;-78
2024/01/06 13:25:08;;;;;;;0.40;0.40;;;9.50;99.90;;;;;;10500076;28;20569;-78
2024/01/06 13:30:13;;;;;;;0.50;0.50;;;9.50;99.90;;;;;;10494092;28;20289;-78
2024/01/06 13:35:16;;;;;;;0.40;0.40;;;9.40;99.90;;;;;;10484674;28;20637;-77
2024/01/06 13:40:19;;;;;;;0.50;0.50;;;9.40;99.90;;;;;;10485257;28;20219;-77
2024/01/06 13:45:23;;;;;;;0.40;0.40;;;9.40;99.90;;;;;;10493960;28;20579;-78
2024/01/06 13:50:25;;;;;;;0.37;0.37;;;9.40;99.90;;;;;;10485037;28;20713;-77
2024/01/06 13:55:28;;;;;;;0.40;0.40;;;9.40;99.90;;;;;;10505238;28;20224;-78
2024/01/06 14:00:31;;;;;;;0.40;0.40;;;9.40;99.90;;;;;;10491484;28;20227;-77
2024/01/06 14:05:34;;;;;;;0.30;0.30;;;9.30;99.90;;;;;;10489810;28;20538;-78
2024/01/06 14:10:37;;;;;;;0.40;0.40;;;9.30;99.90;;;;;;10488982;28;20633;-78
2024/01/06 14:15:41;;;;;;;0.40;0.40;;;9.30;99.90;;;;;;10494337;28;20212;-79
2024/01/06 14:20:43;;;;;;;0.40;0.40;;;9.20;99.90;;;;;;10499161;28;20624;-77
2024/01/06 14:25:46;;;;;;;0.50;0.50;;;9.20;99.90;;;;;;10507049;28;20657;-77
2024/01/06 14:30:49;;;;;;;0.40;0.40;;;9.20;99.90;;;;;;10500453;28;20227;-78
2024/01/06 14:35:52;;;;;;;0.70;0.70;;;9.20;99.90;;;;;;10506332;28;20242;-78
2024/01/06 14:40:55;;;;;;;0.50;0.50;;;9.20;99.90;;;;;;10516420;28;20696;-77
2024/01/06 14:45:58;;;;;;;0.50;0.50;;;9.20;99.90;;;;;;10507039;28;20311;-78
2024/01/06 14:51:04;;;;;;;0.50;0.50;;;9.20;99.90;;;;;;10505098;28;20222;-77
2024/01/06 14:56:06;;;;;;;0.53;0.53;;;9.10;99.90;;;;;;10490705;28;20224;-77
2024/01/06 15:01:10;;;;;;;0.40;0.40;;;9.10;99.90;;;;;;10504197;28;20231;-78
2024/01/06 15:06:12;;;;;;;0.80;0.80;;;9.10;99.90;;;;;;10501163;28;20188;-77
2024/01/06 15:11:15;;;;;;;0.40;0.40;;;9.00;99.90;;;;;;10500885;28;20568;-78
2024/01/06 15:16:18;;;;;;;0.60;0.60;;;9.00;99.90;;;;;;10514042;28;20219;-77
2024/01/06 15:21:23;;;;;;;0.50;0.50;;;9.00;99.90;;;;;;10508114;28;20239;-78
2024/01/06 15:26:26;;;;;;;0.40;0.40;;;9.00;99.90;;;;;;10517530;28;20196;-78
2024/01/06 15:31:31;;;;;;;0.50;0.50;;;9.00;99.90;;;;;;10505984;28;20228;-78
2024/01/06 15:36:33;;;;;;;0.40;0.40;;;9.00;99.90;;;;;;10511256;28;20223;-77
2024/01/06 15:41:36;;;;;;;0.40;0.40;;;9.00;99.90;;;;;;10496001;28;20212;-78
2024/01/06 15:46:40;;;;;;;0.60;0.60;;;9.00;99.90;;;;;;10506969;28;20191;-79
2024/01/06 15:51:42;;;;;;;0.40;0.40;;;9.00;99.90;;;;;;10494949;28;20212;-78
2024/01/06 15:56:45;;;;;;;0.63;0.63;;;8.90;99.90;;;;;;10517526;28;20237;-78
2024/01/06 16:01:48;;;;;;;0.50;0.50;;;8.90;99.90;;;;;;10515330;28;20608;-79
2024/01/06 16:06:52;;;;;;;0.60;0.60;;;8.90;99.90;;;;;;10527860;28;20241;-78
2024/01/06 16:11:57;;;;;;;0.50;0.50;;;8.90;99.90;;;;;;10490539;28;20220;-78
2024/01/06 16:17:01;;;;;;;0.60;0.60;;;8.90;99.90;;;;;;10502246;28;20216;-78
2024/01/06 16:22:03;;;;;;;0.53;0.53;;;8.90;99.90;;;;;;10472834;28;20222;-78
2024/01/06 16:27:06;;;;;;;0.80;0.80;;;8.90;99.90;;;;;;10493638;28;20657;-78
2024/01/06 16:32:09;;;;;;;0.50;0.50;;;8.90;99.90;;;;;;10490658;28;20228;-78
2024/01/06 16:37:12;;;;;;;0.70;0.70;;;8.90;99.90;;;;;;10494214;28;20232;-77
2024/01/06 16:42:14;;;;;;;0.60;0.60;;;8.80;99.90;;;;;;10491721;28;20217;-78
2024/01/06 16:47:18;;;;;;;0.70;0.70;;;8.90;99.90;;;;;;10486699;28;20196;-77
2024/01/06 16:52:20;;;;;;;0.70;0.70;;;8.80;99.90;;;;;;10490381;28;20224;-78
2024/01/06 16:57:23;;;;;;;0.50;0.50;;;8.80;99.90;;;;;;10491289;28;20639;-78
2024/01/06 17:02:27;;;;;;;0.50;0.50;;;8.90;99.90;;;;;;10488570;28;20294;-78
2024/01/06 17:07:29;;;;;;;0.50;0.50;;;8.80;99.90;;;;;;10484330;28;20192;-79
2024/01/06 17:12:31;;;;;;;0.70;0.70;;;8.80;99.90;;;;;;10503151;28;20570;-77
2024/01/06 17:17:36;;;;;;;0.60;0.60;;;8.90;99.90;;;;;;10490966;28;20221;-77
2024/01/06 17:22:42;;;;;;;0.70;0.70;;;8.90;99.90;;;;;;10486558;28;20220;-78
2024/01/06 17:27:45;;;;;;;0.77;0.77;;;8.90;99.90;;;;;;10490283;28;20197;-78
2024/01/06 17:32:50;;;;;;;0.60;0.60;;;8.80;99.90;;;;;;10486048;28;20232;-78
2024/01/06 17:37:52;;;;;;;0.50;0.50;;;8.80;99.90;;;;;;10507080;28;20248;-77
2024/01/06 17:42:55;;;;;;;0.60;0.60;;;8.90;99.90;;;;;;10523902;28;20239;-78
2024/01/06 17:47:58;;;;;;;0.67;0.67;;;8.80;99.90;;;;;;10499981;28;20188;-77
2024/01/06 17:53:01;;;;;;;0.70;0.70;;;8.90;99.90;;;;;;10505076;28;20242;-77
2024/01/06 17:58:04;;;;;;;0.60;0.60;;;8.90;99.90;;;;;;10472026;28;20231;-77
2024/01/06 18:03:08;;;;;;;0.80;0.80;;;8.90;99.90;;;;;;10507435;28;20391;-78
2024/01/06 18:08:11;;;;;;;0.60;0.60;;;8.90;99.90;;;;;;10504571;28;20188;-77
2024/01/06 18:13:13;;;;;;;0.60;0.60;;;8.90;99.90;;;;;;10508985;28;20242;-77
2024/01/06 18:18:17;;;;;;;0.60;0.60;;;8.90;99.90;;;;;;10489188;28;20771;-76
2024/01/06 18:23:19;;;;;;;0.60;0.60;;;8.90;99.90;;;;;;10515938;28;20633;-76
2024/01/06 18:28:24;;;;;;;0.60;0.60;;;8.90;99.90;;;;;;10501876;28;20251;-76
2024/01/06 18:33:27;;;;;;;0.50;0.50;;;8.90;99.90;;;;;;10505501;28;20643;-76
2024/01/06 18:38:30;;;;;;;0.60;0.60;;;8.90;99.90;;;;;;10499716;28;20643;-78
2024/01/06 18:43:33;;;;;;;0.57;0.57;;;8.80;99.90;;;;;;10490436;28;20224;-76
2024/01/06 18:48:37;;;;;;;0.60;0.60;;;8.80;99.90;;;;;;10483477;28;20226;-76
2024/01/06 18:53:40;;;;;;;0.50;0.50;;;8.80;99.90;;;;;;10488933;28;20217;-75
2024/01/06 18:58:42;;;;;;;0.70;0.70;;;8.80;99.90;;;;;;10486990;28;20216;-74
2024/01/06 19:03:46;;;;;;;0.60;0.60;;;8.80;99.90;;;;;;10485043;28;20298;-75
2024/01/06 19:08:49;;;;;;;0.60;0.60;;;8.80;99.90;;;;;;10495250;28;20667;-75
2024/01/06 19:13:51;;;;;;;0.60;0.60;;;8.80;99.90;;;;;;10493083;28;20208;-74
2024/01/06 19:18:55;;;;;;;0.70;0.70;;;8.80;99.90;;;;;;10490392;28;20714;-75
2024/01/06 19:23:57;;;;;;;0.60;0.60;;;8.80;99.90;;;;;;10498206;28;20230;-75
2024/01/06 19:28:59;;;;;;;0.80;0.80;;;8.80;99.90;;;;;;10495918;28;20330;-76
2024/01/06 19:34:03;;;;;;;0.50;0.50;;;8.80;99.90;;;;;;10507681;28;20769;-76
2024/01/06 19:39:06;;;;;;;0.73;0.73;;;8.80;99.90;;;;;;10494030;28;20257;-77
2024/01/06 19:44:09;;;;;;;0.70;0.70;;;8.80;99.90;;;;;;10508861;28;20651;-75
2024/01/06 19:49:13;;;;;;;0.70;0.70;;;8.80;99.90;;;;;;10474623;28;20204;-73
2024/01/06 19:54:15;;;;;;;0.70;0.70;;;8.90;99.90;;;;;;10490144;28;20653;-76
2024/01/06 19:59:17;;;;;;;0.63;0.63;;;8.90;99.90;;;;;;10481256;28;20196;-75
2024/01/06 20:04:21;;;;;;;0.60;0.60;;;8.80;99.90;;;;;;10486077;28;20638;-76
2024/01/06 20:09:23;;;;;;;0.60;0.60;;;8.90;99.90;;;;;;10478198;28;20914;-76
2024/01/06 20:14:26;;;;;;;0.63;0.63;;;8.90;99.90;;;;;;10509410;28;20207;-73
2024/01/06 20:19:29;;;;;;;0.50;0.50;;;8.90;99.90;;;;;;10498490;28;20319;-75
2024/01/06 20:24:32;;;;;;;0.70;0.70;;;8.90;99.90;;;;;;10489128;28;20554;-77
2024/01/06 20:29:34;;;;;;;0.60;0.60;;;8.90;99.90;;;;;;10486847;28;20555;-76
2024/01/06 20:34:38;;;;;;;0.60;0.60;;;8.90;99.90;;;;;;10499771;28;20200;-76
2024/01/06 20:39:41;;;;;;;0.60;0.60;;;8.90;99.90;;;;;;10482174;28;20235;-76
2024/01/06 20:44:44;;;;;;;0.80;0.80;;;8.90;99.90;;;;;;10500500;28;20191;-76
2024/01/06 20:49:47;;;;;;;0.60;0.60;;;8.90;99.90;;;;;;10472684;28;20678;-76
2024/01/06 20:54:49;;;;;;;1.00;1.00;;;8.90;99.90;;;;;;10489414;28;20253;-76
2024/01/06 20:59:52;;;;;;;0.60;0.60;;;8.90;99.90;;;;;;10490666;28;20227;-76
2024/01/06 21:04:58;;;;;;;0.70;0.70;;;8.90;99.90;;;;;;10508446;28;20304;-77
2024/01/06 21:10:03;;;;;;;0.70;0.70;;;8.90;99.90;;;;;;10488210;28;20300;-78
2024/01/06 21:15:06;;;;;;;0.70;0.70;;;8.90;99.90;;;;;;10506977;28;20525;-77
2024/01/06 21:20:10;;;;;;;0.70;0.70;;;8.90;99.90;;;;;;10495088;28;20224;-75
2024/01/06 21:25:18;;;;;;;0.70;0.70;;;8.90;99.90;;;;;;10497858;28;20200;-78
2024/01/06 21:30:21;;;;;;;0.40;0.40;;;8.90;99.90;;;;;;10497943;28;20239;-76
2024/01/06 21:35:25;;;;;;;0.40;0.40;;;8.90;99.90;;;;;;10474986;28;20224;-77
2024/01/06 21:40:27;;;;;;;0.40;0.40;;;8.90;99.90;;;;;;10503041;28;20705;-77
2024/01/06 21:45:29;;;;;;;0.60;0.60;;;8.90;99.90;;;;;;10502265;28;20200;-76
2024/01/06 21:50:33;;;;;;;0.40;0.40;;;8.90;99.90;;;;;;10474013;28;20247;-77
2024/01/06 21:55:36;;;;;;;0.57;0.57;;;8.90;99.90;;;;;;10497289;28;20212;-77
2024/01/06 22:00:40;;;;;;;0.40;0.40;;;8.90;99.90;;;;;;10494996;28;20224;-77
2024/01/06 22:05:44;;;;;;;0.40;0.40;;;8.90;99.90;;;;;;10498182;28;20196;-78
2024/01/06 22:10:46;;;;;;;0.60;0.60;;;8.90;99.90;;;;;;10497629;28;20302;-77
2024/01/06 22:15:48;;;;;;;0.70;0.70;;;8.80;99.90;;;;;;10497322;28;20217;-76
2024/01/06 22:20:54;;;;;;;0.50;0.50;;;8.80;99.90;;;;;;10499227;28;20264;-77
2024/01/06 22:25:56;;;;;;;0.60;0.60;;;8.80;99.90;;;;;;10521457;28;20639;-77
2024/01/06 22:30:59;;;;;;;0.70;0.70;;;8.90;99.90;;;;;;10498619;28;20236;-77
2024/01/06 22:36:03;;;;;;;0.50;0.50;;;8.90;99.90;;;;;;10502142;28;20245;-76
2024/01/06 22:41:05;;;;;;;0.50;0.50;;;8.90;99.90;;;;;;10506590;28;20223;-77
2024/01/06 22:46:08;;;;;;;0.60;0.60;;;8.90;99.90;;;;;;10507740;28;20197;-77
2024/01/06 22:51:11;;;;;;;0.53;0.53;;;8.90;99.90;;;;;;10516009;28;20723;-77
2024/01/06 22:56:14;;;;;;;0.50;0.50;;;8.90;99.90;;;;;;10500989;28;20219;-77
2024/01/06 23:01:17;;;;;;;0.50;0.50;;;8.80;99.90;;;;;;10520979;28;20220;-78
2024/01/06 23:06:20;;;;;;;0.50;0.50;;;8.80;99.90;;;;;;10513469;28;20212;-77
2024/01/06 23:11:23;;;;;;;0.50;0.50;;;8.80;99.90;;;;;;10511024;28;20587;-77
2024/01/06 23:16:25;;;;;;;0.60;0.60;;;8.90;99.90;;;;;;10503515;28;20228;-78
2024/01/06 23:21:29;;;;;;;0.53;0.53;;;8.90;99.90;;;;;;10501398;28;20361;-77
2024/01/06 23:26:31;;;;;;;0.50;0.50;;;8.90;99.90;;;;;;10501908;28;20199;-77
2024/01/06 23:31:34;;;;;;;0.50;0.50;;;8.90;99.90;;;;;;10512122;28;20296;-77
2024/01/06 23:36:37;;;;;;;0.60;0.60;;;8.80;99.90;;;;;;10526310;28;20290;-77
2024/01/06 23:41:40;;;;;;;0.50;0.50;;;8.80;99.90;;;;;;10508474;28;20645;-78
2024/01/06 23:46:42;;;;;;;0.60;0.60;;;8.90;99.90;;;;;;10499116;28;20192;-78
2024/01/06 23:51:46;;;;;;;0.60;0.60;;;8.80;99.90;;;;;;10487122;28;20224;-77
2024/01/06 23:56:48;;;;;;;0.60;0.60;;;8.90;99.90;;;;;;10489851;28;20265;-78
